Latest Weather Observations for Lake Grace

IDW60801

Issued at 3:32 pm WST Friday 27 February 2015 (issued every 30 minutes, with the page automatically refreshed every 10 minutes)

About weather observations | Map of weather stations | Latest weather observations for WA | Other Formats
Station Details ID: 010911 Name: LAKE GRACE Lat: -33.10 Lon: 118.46 Height: 286.0 m
Data from the previous 72 hours. | See also: Recent months at Lake Grace
Date/Time
WST
Temp
°C
App
Temp
°C
Dew
Point
Rel
Hum
%
Delta-T
°C
Wind Press
QNH
hPa
Press
MSL
hPa
Rain
since 9 am
mm
Dir
 
Spd
km/h
Gust
km/h
Spd
kts
Gust
kts
27/03:30pm 24.7 23.1 15.9 58 5.4 SSE 19 32 10 17 1009.3 1008.0 0.0
27/03:00pm 24.7 22.6 16.2 59 5.3 S 22 33 12 18 1009.3 1008.0 0.0
27/02:30pm 25.1 23.5 16.5 59 5.3 S 20 33 11 18 1009.0 1007.7 0.0
27/02:00pm 24.1 21.9 16.9 64 4.5 SSE 24 39 13 21 1008.8 1007.5 0.0
27/01:30pm 25.8 23.6 16.9 58 5.6 S 24 37 13 20 1008.9 1007.6 0.0
27/01:00pm 25.0 22.5 17.2 62 4.9 S 26 39 14 21 1008.8 1007.5 0.0
27/12:30pm 25.7 23.4 17.6 61 5.1 S 26 43 14 23 1008.4 1007.1 0.0
27/12:15pm 26.3 23.6 17.6 58 5.5 SSW 28 46 15 25 1008.2 1006.8 0.0
27/12:00pm 26.5 24.8 17.3 57 5.8 SSW 22 35 12 19 1007.9 1006.5 0.0
27/11:30am 26.2 24.7 17.6 59 5.5 SW 22 35 12 19 1007.9 1006.5 0.0
27/11:00am 25.2 23.6 17.4 62 4.9 SW 22 37 12 20 1007.9 1006.5 0.0
27/10:30am 25.3 23.6 17.2 61 5.1 SW 22 35 12 19 1007.7 1006.3 0.0
27/10:00am 25.4 23.9 17.8 62 4.8 SW 22 30 12 16 1007.4 1006.0 0.0
27/09:30am 25.2 24.3 18.2 65 4.5 SW 20 32 11 17 1007.2 1005.8 0.0
27/09:00am 25.6 25.0 18.5 65 4.6 SW 19 28 10 15 1006.6 1005.2 0.0
27/08:30am 25.0 25.5 18.4 66 4.2 SW 13 20 7 11 1006.4 1005.0 0.0
27/08:00am 24.1 25.0 18.3 70 3.7 SW 11 15 6 8 1006.1 1004.7 0.0
27/07:30am 23.1 24.2 18.0 73 3.2 SSW 9 13 5 7 1006.1 1004.7 0.0
27/07:00am 22.8 24.7 18.6 77 2.7 SSW 6 9 3 5 1005.6 1004.3 0.0
27/06:30am 21.7 23.4 18.1 80 2.3 E 6 7 3 4 1005.2 1003.9 0.0
27/06:00am 21.4 23.0 18.2 82 2.0 WNW 7 11 4 6 1005.3 1004.0 0.0
27/05:30am 20.9 23.7 17.9 83 1.9 CALM 0 0 0 0 1004.8 1003.4 0.0
27/05:00am 21.0 23.8 18.0 83 1.9 CALM 0 0 0 0 1004.6 1003.2 0.0
27/04:30am 21.0 23.6 17.6 81 2.1 CALM 0 0 0 0 1004.5 1003.1 0.0
27/04:00am 21.1 23.4 17.7 81 2.1 NNE 2 6 1 3 1004.5 1003.1 0.0
27/03:30am 21.3 22.8 17.5 79 2.4 NNE 6 7 3 4 1004.5 1003.1 0.0
27/03:00am 21.4 22.3 17.6 79 2.4 NE 9 13 5 7 1004.5 1003.1 0.0
27/02:30am 21.7 23.0 17.5 77 2.6 NE 7 11 4 6 1004.8 1003.4 0.0
27/02:00am 22.0 22.6 17.6 76 2.8 NE 11 17 6 9 1005.0 1003.6 0.0
27/01:30am 22.1 23.0 17.5 75 2.9 NE 9 13 5 7 1005.5 1004.2 0.0
27/01:00am 22.2 23.1 17.6 75 2.9 NE 9 13 5 7 1005.6 1004.3 0.0
27/12:30am 22.3 23.7 17.9 76 2.8 ENE 7 9 4 5 1006.3 1004.9 0.0
27/12:00am 22.4 23.9 18.0 76 2.8 NNE 7 13 4 7 1006.6 1005.2 0.0
 
Date/Time
WST
Temp
°C
App
Temp
°C
Dew
Point
Rel
Hum
%
Delta-T
°C
Wind Press
QNH
hPa
Press
MSL
hPa
Rain
since 9 am
mm
Dir
 
Spd
km/h
Gust
km/h
Spd
kts
Gust
kts
26/11:30pm 22.7 22.3 18.0 75 3.0 NE 17 26 9 14 1006.4 1005.0 0.0
26/11:00pm 22.5 22.2 18.3 77 2.7 ENE 17 26 9 14 1006.6 1005.2 0.0
26/10:30pm 22.5 21.6 18.3 77 2.7 ENE 20 35 11 19 1006.7 1005.3 0.0
26/10:00pm 21.8 19.9 17.6 77 2.6 NE 24 33 13 18 1006.8 1005.4 0.0
26/09:30pm 24.1 22.5 18.3 70 3.7 ENE 24 43 13 23 1006.8 1005.4 0.0
26/09:00pm 23.9 23.8 18.8 73 3.3 E 17 28 9 15 1007.1 1005.7 0.0
26/08:30pm 23.8 23.5 18.2 71 3.6 ESE 17 26 9 14 1006.6 1005.2 0.0
26/08:00pm 24.5 23.6 18.2 68 4.0 E 20 32 11 17 1006.5 1005.1 0.0
26/07:30pm 25.6 24.7 18.3 64 4.7 ESE 20 30 11 16 1006.2 1004.8 0.0
26/07:00pm 27.2 26.4 18.5 59 5.6 ESE 20 30 11 16 1005.6 1004.3 0.0
26/06:30pm 28.7 27.5 18.5 54 6.6 ESE 22 35 12 19 1005.3 1004.0 0.0
26/06:00pm 29.3 27.7 18.4 51 7.1 E 24 39 13 21 1005.3 1004.0 0.0
26/05:30pm 31.7 31.0 18.7 46 8.5 ESE 20 32 11 17 1005.2 1003.9 0.0
26/05:00pm 32.6 31.6 18.0 41 9.5 SSE 20 32 11 17 1005.0 1003.6 0.0
26/04:30pm 33.1 32.4 17.3 39 10.2 S 17 26 9 14 1004.9 1003.5 0.0
26/04:00pm 32.9 32.1 17.1 39 10.2 S 17 24 9 13 1004.8 1003.4 0.0
26/03:30pm 32.5 32.1 16.3 37 10.3 S 13 20 7 11 1005.0 1003.6 0.0
26/03:00pm 33.7 33.6 17.0 37 10.8 SSW 13 24 7 13 1005.1 1003.7 0.0
26/02:30pm 32.9 33.6 17.9 41 9.8 S 11 22 6 12 1005.4 1004.1 0.0
26/02:00pm 32.1 33.7 18.3 44 9.0 SW 7 17 4 9 1006.1 1004.7 0.0
26/01:30pm 31.4 33.1 18.4 46 8.5 ESE 7 20 4 11 1006.2 1004.8 0.0
26/01:00pm 30.2 31.4 18.3 49 7.7 ENE 9 15 5 8 1006.7 1005.3 0.0
26/12:30pm 29.5 30.7 18.3 51 7.3 E 9 19 5 10 1007.3 1005.9 0.0
26/12:00pm 28.0 28.6 18.7 57 6.0 SE 13 22 7 12 1007.9 1006.5 0.0
26/11:30am 27.9 28.6 18.9 58 5.9 E 13 19 7 10 1008.5 1007.2 0.0
26/11:00am 27.0 28.0 18.6 60 5.4 E 11 22 6 12 1008.7 1007.4 0.0
26/10:30am 25.7 26.2 18.4 64 4.7 E 13 17 7 9 1009.0 1007.7 0.0
26/10:00am 24.7 24.9 18.6 69 3.9 SE 15 20 8 11 1009.3 1008.0 0.0
26/09:30am 22.8 22.9 18.3 76 2.9 SE 15 28 8 15 1009.8 1008.4 0.0
26/09:00am 21.6 21.6 18.0 80 2.3 SE 15 24 8 13 1010.2 1008.8 1.2
26/08:30am 20.7 19.9 17.9 84 1.8 SE 19 26 10 14 1009.9 1008.5 1.2
26/08:00am 20.1 19.6 17.7 86 1.5 SE 17 24 9 13 1009.9 1008.5 1.2
26/07:30am 19.6 19.0 17.6 88 1.2 SE 17 24 9 13 1009.7 1008.3 1.2
26/07:00am 19.5 19.3 17.6 89 1.2 ESE 15 24 8 13 1009.6 1008.2 1.2
26/06:30am 19.0 17.8 17.1 89 1.2 SE 19 26 10 14 1009.7 1008.3 1.2
26/06:00am 19.0 19.4 17.3 90 1.0 SE 11 20 6 11 1009.7 1008.3 1.2
26/05:30am 18.9 18.5 17.2 90 1.0 SE 15 22 8 12 1009.1 1007.8 1.2
26/05:00am 18.8 18.0 17.1 90 1.0 SE 17 24 9 13 1009.0 1007.7 1.2
26/04:30am 19.0 19.0 17.3 90 1.0 SE 13 19 7 10 1009.0 1007.7 1.2
26/04:00am 19.4 20.0 17.7 90 1.1 SSE 11 17 6 9 1009.2 1007.9 1.2
26/03:30am 19.6 20.2 17.7 89 1.2 SSE 11 15 6 8 1009.1 1007.8 1.2
26/03:00am 19.8 20.5 17.9 89 1.2 SE 11 13 6 7 1009.2 1007.9 1.2
26/02:30am 19.7 20.7 17.8 89 1.2 E 9 13 5 7 1009.1 1007.8 1.2
26/02:00am 19.4 19.5 17.5 89 1.2 ESE 13 19 7 10 1009.4 1008.1 1.2
26/01:30am 19.2 18.8 17.2 88 1.2 ESE 15 20 8 11 1009.3 1008.0 1.2
26/01:00am 19.2 18.4 17.2 88 1.2 SE 17 24 9 13 1009.3 1008.0 1.2
26/12:30am 19.1 18.9 16.7 86 1.5 SSE 13 17 7 9 1009.9 1008.5 1.2
26/12:00am 19.3 19.2 16.9 86 1.5 SE 13 17 7 9 1010.4 1009.0 1.2
 
Date/Time
WST
Temp
°C
App
Temp
°C
Dew
Point
Rel
Hum
%
Delta-T
°C
Wind Press
QNH
hPa
Press
MSL
hPa
Rain
since 9 am
mm
Dir
 
Spd
km/h
Gust
km/h
Spd
kts
Gust
kts
25/11:30pm 19.2 19.8 16.8 86 1.5 SE 9 15 5 8 1010.7 1009.3 1.2
25/11:00pm 19.2 19.0 16.8 86 1.5 SSE 13 20 7 11 1011.0 1009.6 1.2
25/10:30pm 19.5 18.6 16.9 85 1.6 ESE 17 30 9 16 1010.7 1009.3 1.2
25/10:00pm 19.7 17.7 16.5 82 2.0 E 22 39 12 21 1010.7 1009.3 1.2
25/09:30pm 19.8 17.5 16.6 82 2.0 ESE 24 33 13 18 1010.9 1009.5 1.2
25/09:00pm 20.2 17.6 16.8 81 2.1 SE 26 37 14 20 1011.3 1009.9 1.2
25/08:30pm 20.8 19.5 17.2 80 2.2 SE 20 35 11 19 1011.6 1010.3 1.2
25/08:00pm 21.6 20.1 17.6 78 2.5 SSE 22 33 12 18 1011.7 1010.4 1.2
25/07:30pm 22.9 23.3 19.1 79 2.4 SSE 15 20 8 11 1010.9 1009.5 1.2
25/07:00pm 24.3 24.7 19.8 76 2.9 SE 17 24 9 13 1010.2 1008.8 1.2
25/06:30pm 24.8 25.6 19.0 70 3.7 SSE 13 24 7 13 1009.9 1008.5 0.6
25/06:00pm 27.0 26.9 18.8 60 5.3 SSE 17 26 9 14 1009.0 1007.7 0.0
25/05:30pm 29.3 27.3 17.5 49 7.6 SSE 24 37 13 20 1008.3 1007.0 0.0
25/05:00pm 30.6 29.1 17.7 46 8.3 SE 22 37 12 20 1008.0 1006.6 0.0
25/04:30pm 32.4 30.6 17.8 41 9.5 SE 24 35 13 19 1007.6 1006.2 0.0
25/04:00pm 32.7 30.1 17.7 40 9.8 SSE 28 39 15 21 1007.5 1006.1 0.0
25/03:30pm 33.5 31.6 17.6 38 10.3 SSE 24 33 13 18 1007.7 1006.3 0.0
25/03:00pm 33.3 31.5 17.9 40 10.1 S 24 37 13 20 1007.4 1006.0 0.0
25/02:30pm 34.6 33.9 18.2 37 10.8 S 19 32 10 17 1007.3 1005.9 0.0
25/02:00pm 36.2 35.8 15.3 28 13.3 SW 11 19 6 10 1007.2 1005.8 0.0
25/01:30pm 37.5 36.5 13.5 24 14.9 NW 11 24 6 13 1007.5 1006.1 0.0
25/01:00pm 37.4 35.0 12.8 23 15.2 WNW 17 24 9 13 1007.8 1006.4 0.0
25/12:30pm 37.4 35.2 13.4 24 14.9 NNW 17 28 9 15 1008.1 1006.7 0.0
25/12:00pm 37.1 35.3 13.2 24 14.8 NNW 15 20 8 11 1008.4 1007.1 0.0
25/11:30am 36.2 34.3 14.2 26 13.7 NW 17 26 9 14 1008.8 1007.5 0.0
25/11:00am 35.5 33.0 14.2 28 13.3 NNW 20 30 11 16 1009.2 1007.9 0.0
25/10:30am 35.3 33.6 14.6 29 13.0 NNW 17 30 9 16 1009.7 1008.3 0.0
25/10:00am 33.9 33.0 14.9 32 11.9 NNE 13 20 7 11 1010.1 1008.7 0.0
25/09:30am 33.2 31.9 15.7 35 11.1 NNE 17 30 9 16 1010.2 1008.8 0.0
25/09:00am 31.7 31.5 16.8 40 9.5 NNE 13 19 7 10 1010.3 1008.9 0.8
25/08:30am 29.9 29.6 17.4 47 8.0 NNE 15 20 8 11 1010.6 1009.2 0.8
25/08:00am 28.4 28.7 17.9 53 6.8 NNE 13 19 7 10 1010.4 1009.0 0.8
25/07:30am 27.0 30.3 19.1 62 5.1 CALM 0 7 0 4 1010.3 1008.9 0.8
25/07:00am 25.2 28.4 18.9 68 4.1 CALM 0 0 0 0 1010.2 1008.8 0.8
25/06:30am 23.3 26.0 18.6 75 3.0 NNE 2 6 1 3 1009.9 1008.5 0.8
25/06:00am 23.7 25.4 18.4 72 3.4 W 7 9 4 5 1009.7 1008.3 0.8
25/05:30am 24.8 27.0 18.3 67 4.2 NE 4 11 2 6 1009.1 1007.8 0.8
25/05:00am 24.9 26.1 18.3 66 4.2 NNE 9 13 5 7 1008.9 1007.6 0.8
25/04:30am 25.4 26.5 18.1 64 4.7 NE 9 13 5 7 1009.1 1007.8 0.8
25/04:00am 25.1 26.9 18.8 68 4.1 NE 7 9 4 5 1008.9 1007.6 0.8
25/03:30am 24.8 26.8 19.2 71 3.6 WSW 7 9 4 5 1009.0 1007.7 0.8
25/03:00am 24.8 27.3 19.0 70 3.7 N 4 9 2 5 1008.9 1007.6 0.8
25/02:30am 25.1 26.6 18.8 68 4.1 W 9 20 5 11 1008.8 1007.5 0.8
25/02:00am 25.9 25.9 18.1 62 5.0 ENE 15 20 8 11 1008.1 1006.7 0.8
25/01:30am 24.7 24.1 18.9 70 3.7 NE 20 28 11 15 1009.2 1007.9 0.8
25/01:00am 25.3 24.1 18.5 66 4.4 NE 22 33 12 18 1009.2 1007.9 0.8
25/12:30am 25.0 24.2 18.4 66 4.2 ENE 20 32 11 17 1009.8 1008.4 0.8
25/12:00am 24.9 25.7 19.0 69 3.8 E 13 20 7 11 1010.1 1008.7 0.8
 
Date/Time
WST
Temp
°C
App
Temp
°C
Dew
Point
Rel
Hum
%
Delta-T
°C
Wind Press
QNH
hPa
Press
MSL
hPa
Rain
since 9 am
mm
Dir
 
Spd
km/h
Gust
km/h
Spd
kts
Gust
kts
24/11:30pm 24.3 25.3 18.7 71 3.6 SSE 11 24 6 13 1010.4 1009.0 0.8
24/11:00pm 26.6 27.8 17.4 57 5.8 S 7 11 4 6 1010.4 1009.0 0.0
24/10:30pm 27.7 27.3 16.3 49 7.1 NE 13 19 7 10 1009.9 1008.5 0.0
24/10:00pm 26.7 27.0 16.9 55 6.2 NE 11 17 6 9 1009.8 1008.4 0.0
24/09:30pm 26.5 26.2 17.3 57 5.8 NE 15 19 8 10 1010.0 1008.6 0.0
24/09:00pm 26.5 25.4 17.3 57 5.8 NE 19 28 10 15 1010.0 1008.6 0.0
24/08:30pm 26.3 26.9 18.7 63 4.9 ENE 13 22 7 12 1009.8 1008.4 0.0
24/08:00pm 27.0 27.5 17.5 56 6.0 SW 11 20 6 11 1009.7 1008.3 0.0
24/07:30pm 27.2 25.8 17.1 54 6.4 WSW 20 30 11 16 1009.3 1008.0 0.0
24/07:00pm 28.3 26.1 16.9 50 7.2 WSW 24 43 13 23 1010.0 1008.6 0.0
24/06:38pm 28.7 26.0 17.6 51 7.1 W 28 46 15 25 1010.4 1009.0 0.0
24/06:30pm 31.4 27.9 15.4 38 10.0 WNW 28 46 15 25 1010.4 1009.0 0.0
24/06:24pm 34.7 30.7 10.5 23 14.2 NNW 22 35 12 19 1009.4 1008.1 0.0
24/06:00pm 34.7 31.5 9.9 22 14.5 WSW 17 30 9 16 1007.3 1005.9 0.0
24/05:31pm 36.6 30.7 9.2 19 15.9 WNW 30 48 16 26 1006.7 1005.3 0.0
24/05:30pm 36.5 30.4 9.9 20 15.6 WNW 32 48 17 26 1006.7 1005.3 0.0
24/05:22pm 35.7 30.4 11.4 23 14.6 NW 30 48 16 26 1006.5 1005.1 0.0
24/05:21pm 35.7 30.4 11.4 23 14.6 NW 30 46 16 25 1006.5 1005.1 0.0
24/05:00pm 38.2 35.2 10.5 19 16.6 NNW 17 28 9 15 1006.3 1004.9 0.0
24/04:30pm 38.7 35.2 10.9 19 16.7 N 20 28 11 15 1006.5 1005.1 0.0
24/04:00pm 38.7 34.8 10.9 19 16.8 NNW 22 33 12 18 1006.8 1005.4 0.0

Other Formats:

Comma delimited format used in spreadsheet applications
http://www.bom.gov.au/fwo/IDW60801/IDW60801.95637.axf

JavaScript Object Notation format (JSON) in row-major order
http://www.bom.gov.au/fwo/IDW60801/IDW60801.95637.json